Time;durP1;ratioP1;P1;durP2;ratioP2;P2;SDS_P1;SDS_P2;PMS_P1;PMS_P2;Temp;Humidity;BMP_temperature;BMP_pressure;BME280_temperature;BME280_humidity;BME280_pressure;Samples;Min_cycle;Max_cycle;Signal;HPM_P1;HPM_P2
2021/01/12 00:01:47;;;;;;;14.52;9.98;;;;;;;;;;5049751;28;20220;-63
2021/01/12 00:04:14;;;;;;;18.75;10.98;;;;;;;;;;5049029;28;20608;-62
2021/01/12 00:06:41;;;;;;;16.25;10.68;;;;;;;;;;5081283;28;20581;-63
2021/01/12 00:09:08;;;;;;;17.55;10.73;;;;;;;;;;5048983;28;20624;-62
2021/01/12 00:11:34;;;;;;;16.90;11.00;;;;;;;;;;5049547;28;20229;-61
2021/01/12 00:14:00;;;;;;;19.65;10.38;;;;;;;;;;5048977;28;20693;-63
2021/01/12 00:16:27;;;;;;;16.20;10.82;;;;;;;;;;5049173;28;20275;-65
2021/01/12 00:18:53;;;;;;;18.13;11.10;;;;;;;;;;5049249;28;20274;-62
2021/01/12 00:21:26;;;;;;;18.77;10.70;;;;;;;;;;5049620;28;20207;-63
2021/01/12 00:23:52;;;;;;;15.23;10.13;;;;;;;;;;5049768;28;20226;-64
2021/01/12 00:26:19;;;;;;;18.17;10.85;;;;;;;;;;5048917;28;20681;-64
2021/01/12 00:28:45;;;;;;;22.35;12.52;;;;;;;;;;5048930;28;20196;-63
2021/01/12 00:31:11;;;;;;;19.05;12.25;;;;;;;;;;5048758;28;20185;-65
2021/01/12 00:33:38;;;;;;;18.27;11.27;;;;;;;;;;5049268;28;20709;-62
2021/01/12 00:36:05;;;;;;;18.13;10.98;;;;;;;;;;5048532;28;20327;-64
2021/01/12 00:38:31;;;;;;;20.58;11.95;;;;;;;;;;5049069;28;20266;-64
2021/01/12 00:40:58;;;;;;;20.02;12.25;;;;;;;;;;5049252;28;20275;-64
2021/01/12 00:43:25;;;;;;;21.45;11.77;;;;;;;;;;5052414;28;20215;-66
2021/01/12 00:45:51;;;;;;;18.85;11.88;;;;;;;;;;5049231;28;20193;-61
2021/01/12 00:48:17;;;;;;;17.58;11.57;;;;;;;;;;5049293;28;20300;-64
2021/01/12 00:50:44;;;;;;;20.88;12.73;;;;;;;;;;5049854;28;20224;-64
2021/01/12 00:53:10;;;;;;;21.25;12.32;;;;;;;;;;5052676;28;20228;-64
2021/01/12 00:55:36;;;;;;;20.25;12.63;;;;;;;;;;5052148;28;20196;-61
2021/01/12 00:58:03;;;;;;;22.80;12.90;;;;;;;;;;5053184;28;20201;-63
2021/01/12 01:00:30;;;;;;;22.48;13.02;;;;;;;;;;5051872;28;20200;-61
2021/01/12 01:02:56;;;;;;;22.17;12.73;;;;;;;;;;5052313;28;20250;-64
2021/01/12 01:05:22;;;;;;;22.08;11.88;;;;;;;;;;5051998;28;20299;-62
2021/01/12 01:07:48;;;;;;;22.95;12.77;;;;;;;;;;5052393;28;20227;-63
2021/01/12 01:10:14;;;;;;;18.63;11.70;;;;;;;;;;5051770;28;20207;-63
2021/01/12 01:12:41;;;;;;;19.50;11.98;;;;;;;;;;5052299;28;20240;-64
2021/01/12 01:15:08;;;;;;;21.92;11.98;;;;;;;;;;5052129;28;20234;-60
2021/01/12 01:17:35;;;;;;;21.67;12.73;;;;;;;;;;5051958;28;20196;-62
2021/01/12 01:20:02;;;;;;;23.58;12.70;;;;;;;;;;5050459;28;20678;-64
2021/01/12 01:22:29;;;;;;;22.25;12.98;;;;;;;;;;5052391;28;20252;-66
2021/01/12 01:24:55;;;;;;;23.00;14.13;;;;;;;;;;5051608;28;20196;-61
2021/01/12 01:27:21;;;;;;;19.95;12.50;;;;;;;;;;5052230;28;20223;-63
2021/01/12 01:29:47;;;;;;;22.83;13.00;;;;;;;;;;5051597;28;20203;-60
2021/01/12 01:32:14;;;;;;;22.63;13.15;;;;;;;;;;5051946;28;20212;-63
2021/01/12 01:34:40;;;;;;;20.88;13.52;;;;;;;;;;5051221;28;20291;-64
2021/01/12 01:37:07;;;;;;;28.08;14.88;;;;;;;;;;5051821;28;20252;-63
2021/01/12 01:39:33;;;;;;;25.20;14.00;;;;;;;;;;5051516;28;20198;-63
2021/01/12 01:42:00;;;;;;;22.85;13.07;;;;;;;;;;5051676;28;20228;-63
2021/01/12 01:44:27;;;;;;;25.02;14.02;;;;;;;;;;5051388;28;20189;-65
2021/01/12 01:46:54;;;;;;;24.05;14.30;;;;;;;;;;5052009;28;20197;-62
2021/01/12 01:49:20;;;;;;;26.77;14.57;;;;;;;;;;5051085;28;20200;-64
2021/01/12 01:51:47;;;;;;;26.73;14.90;;;;;;;;;;5051432;28;20271;-61
2021/01/12 01:54:13;;;;;;;25.15;14.60;;;;;;;;;;5050975;28;20196;-63
2021/01/12 01:56:40;;;;;;;24.85;14.52;;;;;;;;;;5051418;28;20246;-59
2021/01/12 01:59:07;;;;;;;27.92;14.75;;;;;;;;;;5050862;28;20287;-64
2021/01/12 02:01:36;;;;;;;32.72;15.20;;;;;;;;;;5051154;28;20193;-61
2021/01/12 02:04:24;;;;;;;34.08;15.35;;;;;;;;;;5051200;28;20664;-62
2021/01/12 02:06:51;;;;;;;28.38;15.70;;;;;;;;;;5052775;28;20215;-62
2021/01/12 02:09:20;;;;;;;25.17;14.48;;;;;;;;;;5051427;28;20199;-61
2021/01/12 02:11:51;;;;;;;26.95;14.63;;;;;;;;;;5051456;28;20232;-61
2021/01/12 02:14:18;;;;;;;27.70;14.80;;;;;;;;;;5052219;28;20192;-63
2021/01/12 02:16:45;;;;;;;25.48;14.60;;;;;;;;;;5051143;28;20203;-63
2021/01/12 02:19:15;;;;;;;27.65;14.77;;;;;;;;;;5050503;28;20218;-62
2021/01/12 02:21:53;;;;;;;28.05;15.15;;;;;;;;;;5050833;28;20299;-63
2021/01/12 02:24:19;;;;;;;24.95;14.40;;;;;;;;;;5050516;28;20211;-66
2021/01/12 02:26:46;;;;;;;26.63;15.27;;;;;;;;;;5051091;28;20204;-62
2021/01/12 02:29:12;;;;;;;25.40;15.75;;;;;;;;;;5049955;28;20605;-62
2021/01/12 02:31:40;;;;;;;32.25;17.02;;;;;;;;;;5050746;28;20206;-62
2021/01/12 02:34:09;;;;;;;32.92;18.70;;;;;;;;;;5050139;28;20222;-62
2021/01/12 02:36:36;;;;;;;42.95;23.20;;;;;;;;;;5050563;28;20801;-61
2021/01/12 02:39:03;;;;;;;40.83;23.27;;;;;;;;;;5050164;28;20200;-62
2021/01/12 02:41:34;;;;;;;48.97;24.80;;;;;;;;;;5050977;28;20272;-63
2021/01/12 02:44:02;;;;;;;45.42;24.05;;;;;;;;;;5050697;28;20287;-65
2021/01/12 02:46:29;;;;;;;47.42;22.33;;;;;;;;;;5050761;28;20220;-65
2021/01/12 02:48:56;;;;;;;41.20;23.15;;;;;;;;;;5050285;28;20192;-62
2021/01/12 02:51:23;;;;;;;41.20;21.88;;;;;;;;;;5049978;28;20192;-65
2021/01/12 02:53:49;;;;;;;34.35;18.13;;;;;;;;;;5050391;28;20242;-63
2021/01/12 02:56:24;;;;;;;39.40;19.05;;;;;;;;;;5049697;28;20283;-61
2021/01/12 02:58:50;;;;;;;36.92;18.75;;;;;;;;;;5050312;28;20670;-64
2021/01/12 03:01:17;;;;;;;32.95;18.40;;;;;;;;;;5081900;28;20622;-62
2021/01/12 03:03:43;;;;;;;39.10;18.70;;;;;;;;;;5050310;28;20200;-62
2021/01/12 03:06:09;;;;;;;35.00;17.95;;;;;;;;;;5049660;28;20200;-62
2021/01/12 03:08:37;;;;;;;33.15;18.95;;;;;;;;;;5049907;28;20176;-63
2021/01/12 03:11:03;;;;;;;37.40;19.83;;;;;;;;;;5049756;28;20204;-61
2021/01/12 03:13:30;;;;;;;33.25;19.02;;;;;;;;;;5049862;28;20609;-62
2021/01/12 03:15:56;;;;;;;33.47;19.10;;;;;;;;;;5049411;28;20195;-61
2021/01/12 03:18:22;;;;;;;35.28;20.00;;;;;;;;;;5050099;28;20756;-62
2021/01/12 03:20:48;;;;;;;38.90;20.42;;;;;;;;;;5049582;28;20216;-62
2021/01/12 03:23:14;;;;;;;34.92;20.65;;;;;;;;;;5049770;28;20291;-63
2021/01/12 03:25:41;;;;;;;37.95;20.48;;;;;;;;;;5049672;28;20305;-62
2021/01/12 03:28:07;;;;;;;35.92;21.40;;;;;;;;;;5049898;28;20206;-62
2021/01/12 03:30:33;;;;;;;38.15;23.17;;;;;;;;;;5049509;28;20196;-64
2021/01/12 03:32:59;;;;;;;35.50;21.83;;;;;;;;;;5049968;28;20227;-64
2021/01/12 03:35:25;;;;;;;38.65;23.17;;;;;;;;;;5049036;28;20240;-63
2021/01/12 03:37:52;;;;;;;38.63;22.48;;;;;;;;;;5049604;28;20207;-65
2021/01/12 03:40:18;;;;;;;37.58;22.58;;;;;;;;;;5049480;28;20215;-64
2021/01/12 03:42:44;;;;;;;39.20;22.17;;;;;;;;;;5049883;28;20287;-63
2021/01/12 03:45:11;;;;;;;39.42;22.52;;;;;;;;;;5050295;28;20199;-68
2021/01/12 03:47:37;;;;;;;43.92;23.20;;;;;;;;;;5049922;28;20218;-61
2021/01/12 03:50:04;;;;;;;42.58;23.95;;;;;;;;;;5049119;28;20197;-65
2021/01/12 03:52:30;;;;;;;44.03;23.60;;;;;;;;;;5048683;28;20647;-63
2021/01/12 03:54:57;;;;;;;41.97;22.92;;;;;;;;;;5049800;28;20239;-63
2021/01/12 03:57:23;;;;;;;43.55;22.92;;;;;;;;;;5050431;28;20196;-62
2021/01/12 03:59:49;;;;;;;43.92;24.00;;;;;;;;;;5048976;28;20267;-61
2021/01/12 04:02:15;;;;;;;39.75;22.50;;;;;;;;;;5050053;28;20181;-62
2021/01/12 04:04:42;;;;;;;32.55;18.25;;;;;;;;;;5049273;28;20196;-61
2021/01/12 04:07:08;;;;;;;25.75;15.57;;;;;;;;;;5049518;28;20200;-63
2021/01/12 04:09:34;;;;;;;24.85;15.27;;;;;;;;;;5049418;28;20203;-62
2021/01/12 04:12:00;;;;;;;24.42;13.55;;;;;;;;;;5049479;28;20207;-62
2021/01/12 04:14:27;;;;;;;19.27;12.15;;;;;;;;;;5048789;28;20628;-64
2021/01/12 04:16:53;;;;;;;21.80;13.57;;;;;;;;;;5049340;28;20206;-61
2021/01/12 04:19:19;;;;;;;21.35;12.65;;;;;;;;;;5048839;28;20216;-64
2021/01/12 04:21:47;;;;;;;17.95;11.93;;;;;;;;;;5049381;28;20191;-62
2021/01/12 04:24:13;;;;;;;19.02;11.77;;;;;;;;;;5048668;28;20199;-62
2021/01/12 04:26:39;;;;;;;17.50;11.48;;;;;;;;;;5052020;28;20193;-62
2021/01/12 04:29:05;;;;;;;23.50;12.43;;;;;;;;;;5052883;28;20690;-60
2021/01/12 04:31:32;;;;;;;19.90;11.32;;;;;;;;;;5052651;28;20186;-62
2021/01/12 04:33:59;;;;;;;19.33;11.98;;;;;;;;;;5053316;28;20330;-62
2021/01/12 04:36:25;;;;;;;17.33;10.82;;;;;;;;;;5052698;28;20224;-61
2021/01/12 04:38:51;;;;;;;17.75;10.60;;;;;;;;;;5053019;28;20185;-61
2021/01/12 04:41:17;;;;;;;14.73;10.10;;;;;;;;;;5052372;28;20305;-61
2021/01/12 04:43:43;;;;;;;16.48;10.68;;;;;;;;;;5052964;28;20254;-61
2021/01/12 04:46:09;;;;;;;16.13;10.32;;;;;;;;;;5052144;28;20579;-63
2021/01/12 04:48:35;;;;;;;19.15;11.98;;;;;;;;;;5052656;28;20184;-63
2021/01/12 04:51:03;;;;;;;17.63;11.98;;;;;;;;;;5052381;28;20197;-62
2021/01/12 04:53:37;;;;;;;18.55;12.20;;;;;;;;;;5040608;28;20313;-60
2021/01/12 04:56:03;;;;;;;16.58;11.20;;;;;;;;;;5049804;28;20294;-61
2021/01/12 04:58:37;;;;;;;22.58;12.65;;;;;;;;;;5052334;28;20202;-61
2021/01/12 05:01:07;;;;;;;16.92;11.57;;;;;;;;;;5051732;28;20212;-62
2021/01/12 05:03:34;;;;;;;21.42;12.60;;;;;;;;;;5052146;28;20193;-59
2021/01/12 05:06:00;;;;;;;18.33;11.93;;;;;;;;;;5051675;28;20200;-60
2021/01/12 05:08:27;;;;;;;17.05;12.00;;;;;;;;;;5052622;28;20593;-60
2021/01/12 05:10:57;;;;;;;17.08;11.48;;;;;;;;;;5051841;28;20724;-63
2021/01/12 05:13:24;;;;;;;22.45;11.80;;;;;;;;;;5047786;28;20228;-64
2021/01/12 05:15:52;;;;;;;20.48;11.85;;;;;;;;;;5053858;28;20878;-64
2021/01/12 05:18:19;;;;;;;17.58;11.98;;;;;;;;;;5054863;28;20272;-62
2021/01/12 05:20:48;;;;;;;20.75;13.25;;;;;;;;;;5051245;28;20193;-61
2021/01/12 05:23:19;;;;;;;20.92;13.95;;;;;;;;;;5052025;28;20568;-65
2021/01/12 05:25:45;;;;;;;21.30;13.32;;;;;;;;;;5051384;28;20583;-60
2021/01/12 05:28:12;;;;;;;19.55;12.70;;;;;;;;;;5047900;28;20500;-63
2021/01/12 05:30:38;;;;;;;18.75;12.38;;;;;;;;;;5050317;28;20189;-63
2021/01/12 05:33:05;;;;;;;43.15;28.55;;;;;;;;;;5056461;28;20223;-63
2021/01/12 05:35:35;;;;;;;20.10;14.88;;;;;;;;;;5057353;28;20585;-62
2021/01/12 05:38:03;;;;;;;16.50;10.82;;;;;;;;;;5049887;28;20242;-62
2021/01/12 05:40:30;;;;;;;16.95;11.32;;;;;;;;;;5050145;28;20550;-62
2021/01/12 05:43:12;;;;;;;20.55;14.35;;;;;;;;;;5051355;28;20257;-64
2021/01/12 05:45:39;;;;;;;15.55;11.13;;;;;;;;;;5050985;28;20200;-63
2021/01/12 05:48:07;;;;;;;36.80;20.52;;;;;;;;;;5051211;28;20283;-62
2021/01/12 05:50:33;;;;;;;17.80;12.23;;;;;;;;;;5050736;28;20211;-62
2021/01/12 05:53:02;;;;;;;19.85;11.50;;;;;;;;;;5051484;28;20239;-64
2021/01/12 05:55:31;;;;;;;18.52;10.27;;;;;;;;;;5051169;28;20216;-61
2021/01/12 05:58:04;;;;;;;17.65;11.48;;;;;;;;;;5051176;28;20697;-64
2021/01/12 06:00:30;;;;;;;17.90;11.45;;;;;;;;;;5050848;28;20204;-61
2021/01/12 06:02:57;;;;;;;18.35;11.50;;;;;;;;;;5051261;28;20196;-61
2021/01/12 06:05:24;;;;;;;17.75;12.35;;;;;;;;;;5051177;28;20193;-64
2021/01/12 06:07:50;;;;;;;16.35;12.15;;;;;;;;;;5051139;28;20189;-62
2021/01/12 06:10:17;;;;;;;19.10;12.90;;;;;;;;;;5050675;28;20207;-62
2021/01/12 06:12:47;;;;;;;17.58;12.55;;;;;;;;;;5050752;28;20556;-62
2021/01/12 06:15:15;;;;;;;20.17;12.48;;;;;;;;;;5050806;28;20792;-61
2021/01/12 06:17:43;;;;;;;17.63;12.95;;;;;;;;;;5050894;28;20250;-61
2021/01/12 06:20:14;;;;;;;23.25;15.13;;;;;;;;;;5050157;28;20721;-63
2021/01/12 06:22:42;;;;;;;23.40;15.88;;;;;;;;;;5050853;28;20732;-63
2021/01/12 06:25:10;;;;;;;22.17;15.63;;;;;;;;;;5051141;28;20218;-62
2021/01/12 06:27:37;;;;;;;24.33;16.75;;;;;;;;;;5050556;28;20191;-61
2021/01/12 06:30:05;;;;;;;24.45;16.05;;;;;;;;;;5050651;28;20184;-63
2021/01/12 06:32:32;;;;;;;22.45;15.25;;;;;;;;;;5050883;28;20278;-62
2021/01/12 06:35:00;;;;;;;23.58;16.00;;;;;;;;;;5050440;28;20236;-60
2021/01/12 06:37:27;;;;;;;21.08;14.15;;;;;;;;;;5050933;28;20222;-63
2021/01/12 06:39:57;;;;;;;22.95;15.00;;;;;;;;;;5050262;28;20215;-63
2021/01/12 06:42:25;;;;;;;25.83;16.10;;;;;;;;;;5050921;28;20295;-62
2021/01/12 06:44:53;;;;;;;24.33;15.80;;;;;;;;;;5049898;28;20569;-61
2021/01/12 06:47:21;;;;;;;24.65;17.10;;;;;;;;;;5052660;28;20223;-62
2021/01/12 06:49:47;;;;;;;28.33;16.05;;;;;;;;;;5050351;28;20204;-64
2021/01/12 06:52:14;;;;;;;25.25;16.35;;;;;;;;;;5050673;28;20698;-61
2021/01/12 06:54:44;;;;;;;24.40;16.52;;;;;;;;;;5050099;28;20625;-61
2021/01/12 06:57:32;;;;;;;24.55;16.02;;;;;;;;;;5050242;28;20200;-63
2021/01/12 06:59:58;;;;;;;23.98;15.65;;;;;;;;;;5050011;28;20232;-61
2021/01/12 07:02:25;;;;;;;22.73;15.25;;;;;;;;;;5050198;28;20192;-61
2021/01/12 07:04:55;;;;;;;22.15;15.38;;;;;;;;;;5050271;28;20239;-62
2021/01/12 07:07:26;;;;;;;21.17;13.55;;;;;;;;;;5050239;28;20574;-64
2021/01/12 07:10:03;;;;;;;21.58;13.32;;;;;;;;;;5050244;28;20220;-62
2021/01/12 07:12:32;;;;;;;21.75;13.20;;;;;;;;;;5050183;28;20208;-62
2021/01/12 07:15:02;;;;;;;20.45;13.00;;;;;;;;;;5049806;28;20189;-61
2021/01/12 07:17:31;;;;;;;19.92;12.18;;;;;;;;;;5050016;28;20219;-60
2021/01/12 07:20:07;;;;;;;17.15;11.77;;;;;;;;;;5049680;28;20200;-61
2021/01/12 07:22:34;;;;;;;21.30;12.15;;;;;;;;;;5049888;28;20286;-61
2021/01/12 07:25:01;;;;;;;17.25;12.02;;;;;;;;;;5049629;28;20173;-64
2021/01/12 07:27:27;;;;;;;17.27;11.88;;;;;;;;;;5049870;28;20224;-60
2021/01/12 07:29:54;;;;;;;17.85;11.50;;;;;;;;;;5049799;28;20601;-65
2021/01/12 07:32:27;;;;;;;19.65;11.25;;;;;;;;;;5049566;28;20201;-61
2021/01/12 07:34:55;;;;;;;16.48;11.48;;;;;;;;;;5049277;28;20254;-64
2021/01/12 07:37:28;;;;;;;17.25;11.05;;;;;;;;;;5049931;28;20206;-62
2021/01/12 07:39:55;;;;;;;17.63;12.32;;;;;;;;;;5049463;28;20256;-61
2021/01/12 07:42:21;;;;;;;34.63;18.08;;;;;;;;;;5049571;28;20185;-62
2021/01/12 07:44:47;;;;;;;44.40;21.95;;;;;;;;;;5047896;28;20236;-64
2021/01/12 07:47:14;;;;;;;30.27;16.38;;;;;;;;;;5050091;28;20192;-61
2021/01/12 07:49:41;;;;;;;20.73;13.98;;;;;;;;;;5049268;28;20691;-63
2021/01/12 07:52:08;;;;;;;20.48;13.80;;;;;;;;;;5049899;28;20208;-63
2021/01/12 07:54:35;;;;;;;19.58;14.25;;;;;;;;;;5049126;28;20210;-61
2021/01/12 07:57:02;;;;;;;22.63;15.80;;;;;;;;;;5049785;28;20192;-62
2021/01/12 07:59:29;;;;;;;20.13;14.23;;;;;;;;;;5049757;28;20200;-61
2021/01/12 08:01:56;;;;;;;22.33;14.23;;;;;;;;;;5054040;28;20199;-65
2021/01/12 08:04:22;;;;;;;21.88;15.65;;;;;;;;;;5052988;28;20662;-64
2021/01/12 08:06:48;;;;;;;21.30;15.68;;;;;;;;;;5053908;28;20192;-61
2021/01/12 08:09:21;;;;;;;26.83;16.38;;;;;;;;;;5053340;28;20228;-63
2021/01/12 08:11:59;;;;;;;27.00;19.35;;;;;;;;;;5053702;28;20696;-64
2021/01/12 08:14:26;;;;;;;23.00;16.23;;;;;;;;;;5053281;28;20228;-66
2021/01/12 08:16:53;;;;;;;25.17;15.73;;;;;;;;;;5053889;28;20209;-65
2021/01/12 08:19:23;;;;;;;21.30;14.90;;;;;;;;;;5054626;28;20204;-64
2021/01/12 08:21:50;;;;;;;26.70;18.27;;;;;;;;;;5053665;28;20222;-65
2021/01/12 08:24:20;;;;;;;21.85;15.07;;;;;;;;;;5052819;28;20626;-63
2021/01/12 08:26:48;;;;;;;18.60;13.57;;;;;;;;;;5053447;28;20296;-65
2021/01/12 08:29:19;;;;;;;19.63;13.80;;;;;;;;;;5052865;28;20192;-61
2021/01/12 08:31:47;;;;;;;19.92;13.07;;;;;;;;;;5053647;28;20200;-62
2021/01/12 08:34:18;;;;;;;18.08;12.48;;;;;;;;;;5052856;28;20414;-64
2021/01/12 08:36:46;;;;;;;16.52;11.02;;;;;;;;;;5053293;28;20236;-64
2021/01/12 08:39:23;;;;;;;17.25;12.18;;;;;;;;;;5053001;28;20263;-63
2021/01/12 08:41:50;;;;;;;17.77;12.30;;;;;;;;;;5053450;28;20197;-61
2021/01/12 08:44:17;;;;;;;21.25;11.85;;;;;;;;;;5053012;28;20315;-63
2021/01/12 08:46:44;;;;;;;19.67;12.68;;;;;;;;;;5052893;28;20195;-63
2021/01/12 08:49:10;;;;;;;19.90;12.73;;;;;;;;;;5052360;28;20192;-62
2021/01/12 08:51:36;;;;;;;18.67;12.18;;;;;;;;;;5052441;28;20192;-62
2021/01/12 08:54:03;;;;;;;18.33;12.15;;;;;;;;;;5052236;28;20208;-63
2021/01/12 08:56:29;;;;;;;18.45;11.80;;;;;;;;;;5052835;28;20188;-62
2021/01/12 08:59:06;;;;;;;20.15;13.38;;;;;;;;;;5052771;28;20192;-62
2021/01/12 09:01:33;;;;;;;22.85;15.43;;;;;;;;;;5052403;28;20198;-62
2021/01/12 09:04:06;;;;;;;25.58;15.45;;;;;;;;;;5052441;28;20192;-64
2021/01/12 09:06:32;;;;;;;29.17;16.88;;;;;;;;;;5052694;28;20420;-63
2021/01/12 09:09:08;;;;;;;25.73;16.80;;;;;;;;;;5052351;28;20196;-63
2021/01/12 09:11:53;;;;;;;28.52;14.93;;;;;;;;;;5051539;28;20246;-66
2021/01/12 09:14:20;;;;;;;22.52;14.27;;;;;;;;;;5052178;28;20894;-63
2021/01/12 09:16:47;;;;;;;20.30;13.48;;;;;;;;;;5052406;28;20189;-63
2021/01/12 09:19:15;;;;;;;19.45;13.45;;;;;;;;;;5051533;28;20216;-63
2021/01/12 09:21:41;;;;;;;22.67;13.70;;;;;;;;;;5052850;28;20235;-64
2021/01/12 09:24:08;;;;;;;23.90;14.57;;;;;;;;;;5052970;28;20224;-64
2021/01/12 09:26:35;;;;;;;19.80;14.25;;;;;;;;;;5053234;28;20193;-63
2021/01/12 09:29:02;;;;;;;22.63;14.27;;;;;;;;;;5052184;28;20274;-64
2021/01/12 09:31:29;;;;;;;22.63;15.13;;;;;;;;;;5052300;28;20675;-65
2021/01/12 09:33:56;;;;;;;23.58;15.18;;;;;;;;;;5051937;28;20219;-63
2021/01/12 09:36:31;;;;;;;19.98;13.52;;;;;;;;;;5051577;28;20243;-63
2021/01/12 09:38:57;;;;;;;19.73;13.70;;;;;;;;;;5051581;28;20602;-64
2021/01/12 09:41:27;;;;;;;21.20;14.50;;;;;;;;;;5051789;28;20291;-61
2021/01/12 09:43:54;;;;;;;21.33;14.10;;;;;;;;;;5052051;28;20243;-64
2021/01/12 09:46:20;;;;;;;25.70;15.18;;;;;;;;;;5051700;28;20604;-64
2021/01/12 09:48:47;;;;;;;23.75;15.07;;;;;;;;;;5052708;28;20266;-65
2021/01/12 09:51:14;;;;;;;26.33;15.95;;;;;;;;;;5053212;28;20254;-62
2021/01/12 09:53:41;;;;;;;24.67;14.95;;;;;;;;;;5051882;28;20224;-66
2021/01/12 09:56:10;;;;;;;22.67;14.98;;;;;;;;;;5051576;28;20618;-63
2021/01/12 09:58:37;;;;;;;22.75;15.23;;;;;;;;;;5051631;28;20191;-64
2021/01/12 10:01:04;;;;;;;25.58;15.80;;;;;;;;;;5051240;28;20932;-62
2021/01/12 10:03:31;;;;;;;24.90;15.70;;;;;;;;;;5051694;28;20200;-63
2021/01/12 10:05:58;;;;;;;29.80;16.55;;;;;;;;;;5050846;28;20205;-64
2021/01/12 10:08:25;;;;;;;25.48;13.80;;;;;;;;;;5051313;28;20185;-62
2021/01/12 10:10:54;;;;;;;21.67;14.98;;;;;;;;;;5050865;28;20273;-63
2021/01/12 10:13:21;;;;;;;32.28;19.38;;;;;;;;;;5051479;28;20239;-63
2021/01/12 10:15:47;;;;;;;28.55;18.45;;;;;;;;;;5050740;28;20230;-62
2021/01/12 10:18:17;;;;;;;18.83;12.98;;;;;;;;;;5051323;28;20193;-63
2021/01/12 10:20:44;;;;;;;20.25;12.68;;;;;;;;;;5050531;28;20299;-62
2021/01/12 10:23:10;;;;;;;19.35;13.23;;;;;;;;;;5051392;28;20666;-64
2021/01/12 10:25:40;;;;;;;19.83;13.07;;;;;;;;;;5051044;28;20209;-64
2021/01/12 10:28:06;;;;;;;17.02;12.20;;;;;;;;;;5051026;28;20188;-62
2021/01/12 10:30:32;;;;;;;18.25;12.13;;;;;;;;;;5050375;28;20200;-62
2021/01/12 10:32:59;;;;;;;17.55;11.80;;;;;;;;;;5050944;28;20208;-62
2021/01/12 10:35:25;;;;;;;17.17;12.82;;;;;;;;;;5049918;28;20233;-63
2021/01/12 10:37:52;;;;;;;18.45;11.80;;;;;;;;;;5050873;28;20614;-63
2021/01/12 10:40:18;;;;;;;17.80;11.38;;;;;;;;;;5050484;28;20192;-62
2021/01/12 10:42:46;;;;;;;16.75;11.75;;;;;;;;;;5049760;28;20594;-63
2021/01/12 10:45:13;;;;;;;15.93;11.15;;;;;;;;;;5050629;28;20173;-63
2021/01/12 10:47:48;;;;;;;13.20;9.57;;;;;;;;;;5051038;28;20207;-62
2021/01/12 10:50:17;;;;;;;14.70;10.30;;;;;;;;;;5050092;28;20326;-63
2021/01/12 10:52:44;;;;;;;16.73;11.25;;;;;;;;;;5050953;28;20199;-63
2021/01/12 10:55:10;;;;;;;15.45;10.57;;;;;;;;;;5050090;28;20231;-61
2021/01/12 10:57:37;;;;;;;16.42;10.25;;;;;;;;;;5051107;28;20215;-64
2021/01/12 11:00:22;;;;;;;19.50;11.73;;;;;;;;;;5064455;28;20204;-63
2021/01/12 11:03:02;;;;;;;14.20;10.40;;;;;;;;;;5050061;28;20201;-63
2021/01/12 11:05:35;;;;;;;13.18;9.45;;;;;;;;;;5048873;28;20682;-61
2021/01/12 11:08:02;;;;;;;15.60;9.95;;;;;;;;;;5050240;28;20276;-62
2021/01/12 11:10:30;;;;;;;15.85;10.95;;;;;;;;;;5049716;28;20193;-63
2021/01/12 11:12:59;;;;;;;17.77;11.98;;;;;;;;;;5050154;28;20204;-63
2021/01/12 11:15:28;;;;;;;16.38;10.02;;;;;;;;;;5049777;28;20705;-64
2021/01/12 11:17:55;;;;;;;15.70;10.73;;;;;;;;;;5049650;28;20289;-63
2021/01/12 11:20:22;;;;;;;16.60;11.23;;;;;;;;;;5051031;28;20180;-64
2021/01/12 11:22:49;;;;;;;16.95;10.25;;;;;;;;;;5051495;28;20693;-63
2021/01/12 11:25:15;;;;;;;17.92;11.50;;;;;;;;;;5049523;28;20271;-61
2021/01/12 11:27:42;;;;;;;16.20;11.43;;;;;;;;;;5050299;28;20208;-62
2021/01/12 11:30:08;;;;;;;14.80;10.43;;;;;;;;;;5049274;28;20570;-62
2021/01/12 11:32:39;;;;;;;16.92;10.95;;;;;;;;;;5049639;28;20279;-61
2021/01/12 11:35:05;;;;;;;15.85;11.43;;;;;;;;;;5048728;28;20232;-63
2021/01/12 11:37:32;;;;;;;14.32;9.93;;;;;;;;;;5049692;28;20198;-61
2021/01/12 11:39:58;;;;;;;14.10;9.00;;;;;;;;;;5049227;28;20192;-62
2021/01/12 11:42:25;;;;;;;13.73;9.30;;;;;;;;;;5049807;28;20189;-64
2021/01/12 11:44:51;;;;;;;12.85;8.55;;;;;;;;;;5049696;28;20196;-65
2021/01/12 11:47:18;;;;;;;12.50;6.97;;;;;;;;;;5049576;28;20242;-63
2021/01/12 11:49:46;;;;;;;10.50;6.93;;;;;;;;;;5049223;28;20657;-60
2021/01/12 11:52:12;;;;;;;9.07;7.63;;;;;;;;;;5049569;28;20195;-63
2021/01/12 11:54:38;;;;;;;9.77;7.25;;;;;;;;;;5049141;28;20385;-61
2021/01/12 11:57:09;;;;;;;12.32;7.80;;;;;;;;;;5049371;28;20179;-66
2021/01/12 11:59:36;;;;;;;12.35;8.07;;;;;;;;;;5049333;28;20660;-64
2021/01/12 12:02:02;;;;;;;12.13;8.45;;;;;;;;;;5049506;28;20575;-64
2021/01/12 12:04:29;;;;;;;11.02;7.40;;;;;;;;;;5049161;28;20197;-63
2021/01/12 12:07:00;;;;;;;13.10;7.10;;;;;;;;;;5049487;28;20199;-62
2021/01/12 12:09:32;;;;;;;7.85;6.43;;;;;;;;;;5049088;28;20301;-64
2021/01/12 12:11:58;;;;;;;7.28;5.82;;;;;;;;;;5049681;28;20199;-63
2021/01/12 12:14:26;;;;;;;9.00;6.38;;;;;;;;;;5048814;28;20239;-62
2021/01/12 12:16:54;;;;;;;8.50;6.03;;;;;;;;;;5049440;28;20273;-60
2021/01/12 12:19:21;;;;;;;7.32;6.03;;;;;;;;;;5049050;28;20290;-62
2021/01/12 12:21:55;;;;;;;8.30;6.25;;;;;;;;;;5049139;28;20223;-63
2021/01/12 12:24:22;;;;;;;10.25;6.88;;;;;;;;;;5049508;28;20659;-63
2021/01/12 12:26:49;;;;;;;9.05;7.13;;;;;;;;;;5049885;28;20196;-65
2021/01/12 12:29:16;;;;;;;8.45;6.53;;;;;;;;;;5048945;28;20198;-65
2021/01/12 12:31:42;;;;;;;10.88;6.80;;;;;;;;;;5049178;28;20216;-63
2021/01/12 12:34:09;;;;;;;9.65;6.80;;;;;;;;;;5048929;28;20242;-65
2021/01/12 12:36:36;;;;;;;8.73;6.63;;;;;;;;;;5048950;28;20231;-62
2021/01/12 12:39:03;;;;;;;10.05;6.63;;;;;;;;;;5048882;28;20261;-63
2021/01/12 12:41:32;;;;;;;10.52;7.30;;;;;;;;;;5049701;28;20284;-62
2021/01/12 12:44:01;;;;;;;8.70;6.95;;;;;;;;;;5049203;28;20205;-61
2021/01/12 12:46:28;;;;;;;10.07;7.78;;;;;;;;;;5049649;28;20200;-62
2021/01/12 12:48:54;;;;;;;9.65;7.35;;;;;;;;;;5053287;28;20799;-62
2021/01/12 12:51:21;;;;;;;12.63;8.30;;;;;;;;;;5053634;28;20200;-64
2021/01/12 12:53:49;;;;;;;11.65;7.75;;;;;;;;;;5054067;28;20221;-63
2021/01/12 12:56:16;;;;;;;11.93;8.57;;;;;;;;;;5052129;28;20582;-61
2021/01/12 12:58:43;;;;;;;11.88;8.60;;;;;;;;;;5053036;28;20673;-63
2021/01/12 13:01:11;;;;;;;10.63;7.65;;;;;;;;;;5052596;28;20189;-62
2021/01/12 13:03:38;;;;;;;12.38;8.05;;;;;;;;;;5052725;28;20192;-64
2021/01/12 13:06:05;;;;;;;11.48;8.43;;;;;;;;;;5052964;28;20197;-66
2021/01/12 13:08:32;;;;;;;13.88;8.82;;;;;;;;;;5053020;28;20303;-64
2021/01/12 13:10:58;;;;;;;11.35;8.30;;;;;;;;;;5052830;28;20204;-60
2021/01/12 13:13:25;;;;;;;11.32;8.20;;;;;;;;;;5052385;28;20201;-64
2021/01/12 13:15:52;;;;;;;12.52;9.27;;;;;;;;;;5052087;28;20269;-65
2021/01/12 13:18:25;;;;;;;10.68;8.00;;;;;;;;;;5052454;28;20208;-63
2021/01/12 13:20:51;;;;;;;11.02;8.75;;;;;;;;;;5051934;28;20180;-64
2021/01/12 13:23:18;;;;;;;11.88;8.27;;;;;;;;;;5052430;28;20283;-62
2021/01/12 13:25:48;;;;;;;12.23;8.52;;;;;;;;;;5051915;28;20195;-61
2021/01/12 13:28:14;;;;;;;10.85;8.32;;;;;;;;;;5051993;28;20222;-64
2021/01/12 13:30:43;;;;;;;10.10;7.97;;;;;;;;;;5051641;28;20197;-62
2021/01/12 13:33:10;;;;;;;10.07;7.63;;;;;;;;;;5052242;28;20262;-63
2021/01/12 13:35:36;;;;;;;10.48;8.07;;;;;;;;;;5051808;28;20256;-62
2021/01/12 13:38:03;;;;;;;10.60;7.97;;;;;;;;;;5051869;28;20192;-63
2021/01/12 13:40:29;;;;;;;10.75;7.63;;;;;;;;;;5051616;28;20192;-65
2021/01/12 13:42:58;;;;;;;10.63;7.97;;;;;;;;;;5051849;28;20279;-62
2021/01/12 13:45:29;;;;;;;13.55;8.32;;;;;;;;;;5051524;28;20188;-63
2021/01/12 13:47:56;;;;;;;11.70;8.35;;;;;;;;;;5051872;28;20181;-62
2021/01/12 13:50:24;;;;;;;12.80;8.57;;;;;;;;;;5051143;28;20556;-63
2021/01/12 13:52:51;;;;;;;13.10;8.65;;;;;;;;;;5051694;28;20192;-62
2021/01/12 13:55:18;;;;;;;11.88;9.05;;;;;;;;;;5051244;28;20212;-63
2021/01/12 13:58:02;;;;;;;15.00;10.15;;;;;;;;;;5051234;28;20196;-60
2021/01/12 14:00:29;;;;;;;16.88;11.30;;;;;;;;;;5051378;28;20196;-62
2021/01/12 14:02:56;;;;;;;17.02;11.00;;;;;;;;;;5051525;28;20197;-64
2021/01/12 14:05:24;;;;;;;17.25;11.50;;;;;;;;;;5051053;28;20189;-61
2021/01/12 14:07:50;;;;;;;17.40;11.35;;;;;;;;;;5051064;28;20200;-63
2021/01/12 14:10:17;;;;;;;16.40;11.38;;;;;;;;;;5051315;28;20193;-63
2021/01/12 14:12:43;;;;;;;15.20;10.82;;;;;;;;;;5051290;28;20197;-63
2021/01/12 14:15:10;;;;;;;16.92;10.20;;;;;;;;;;5051253;28;20231;-64
2021/01/12 14:17:46;;;;;;;16.92;10.52;;;;;;;;;;5050814;28;20211;-64
2021/01/12 14:20:14;;;;;;;16.55;10.35;;;;;;;;;;5051005;28;20265;-61
2021/01/12 14:22:41;;;;;;;16.15;10.35;;;;;;;;;;5051381;28;20295;-62